Time,TemperatureF,DewpointF,PressureIn,WindDirection,WindDirectionDegrees,WindSpeedMPH,WindSpeedGustMPH,Humidity,HourlyPrecipIn,Conditions,Clouds,dailyrainin,SoftwareType,DateUTC
2013-02-06 00:03:00,66.2,65.0,30.02,SE,139,1.0,4.0,94,0.00,,,0.00,weatherlink.com 1.10,2013-02-06 06:03:00,
2013-02-06 00:18:00,66.1,65.0,30.02,South,175,1.0,5.0,95,0.00,,,0.00,weatherlink.com 1.10,2013-02-06 06:18:00,
2013-02-06 00:33:00,66.1,65.0,30.02,SSE,150,0.0,8.0,95,0.00,,,0.00,weatherlink.com 1.10,2013-02-06 06:33:00,
2013-02-06 00:48:00,66.1,65.0,30.02,SE,132,0.0,3.0,95,0.00,,,0.00,weatherlink.com 1.10,2013-02-06 06:48:00,
2013-02-06 01:03:00,66.2,65.0,30.03,SE,134,4.0,4.0,95,0.00,,,0.00,weatherlink.com 1.10,2013-02-06 07:03:00,
2013-02-06 01:18:00,66.2,65.0,30.03,SSE,148,0.0,3.0,95,0.00,,,0.00,weatherlink.com 1.10,2013-02-06 07:18:00,
2013-02-06 01:33:00,66.3,65.0,30.05,SSE,161,1.0,5.0,95,0.00,,,0.00,weatherlink.com 1.10,2013-02-06 07:33:00,
2013-02-06 01:48:00,66.3,65.0,30.06,SSE,160,1.0,6.0,95,0.00,,,0.00,weatherlink.com 1.10,2013-02-06 07:48:00,
2013-02-06 02:03:00,66.3,65.0,30.05,SSE,167,2.0,5.0,95,0.00,,,0.00,weatherlink.com 1.10,2013-02-06 08:03:00,
2013-02-06 02:18:00,66.2,65.0,30.05,SSE,165,0.0,4.0,95,0.00,,,0.00,weatherlink.com 1.10,2013-02-06 08:18:00,
2013-02-06 02:33:00,66.1,65.0,30.04,SSE,156,0.0,3.0,95,0.00,,,0.00,weatherlink.com 1.10,2013-02-06 08:33:00,
2013-02-06 02:48:00,66.1,65.0,30.04,SSE,160,0.0,1.0,95,0.00,,,0.00,weatherlink.com 1.10,2013-02-06 08:48:00,
2013-02-06 03:18:00,65.9,65.0,30.04,SSE,153,1.0,5.0,95,0.00,,,0.00,weatherlink.com 1.10,2013-02-06 09:18:00,
2013-02-06 03:33:00,65.8,64.0,30.03,SE,139,2.0,6.0,95,0.01,,,0.01,weatherlink.com 1.10,2013-02-06 09:33:00,
2013-02-06 03:48:00,65.7,64.0,30.01,SE,141,3.0,5.0,95,0.03,,,0.03,weatherlink.com 1.10,2013-02-06 09:48:00,
2013-02-06 04:03:00,65.6,65.0,30.01,South,175,4.0,9.0,96,0.05,,,0.05,weatherlink.com 1.10,2013-02-06 10:03:00,
2013-02-06 04:18:00,65.8,65.0,30.02,SSE,157,1.0,9.0,96,0.07,,,0.07,weatherlink.com 1.10,2013-02-06 10:18:00,
2013-02-06 04:33:00,65.7,65.0,30.02,ESE,115,2.0,7.0,96,0.07,,,0.08,weatherlink.com 1.10,2013-02-06 10:33:00,
2013-02-06 04:48:00,65.6,65.0,30.01,ESE,111,4.0,7.0,96,0.05,,,0.08,weatherlink.com 1.10,2013-02-06 10:48:00,
2013-02-06 05:03:00,65.6,65.0,30.01,SE,126,0.0,9.0,96,0.03,,,0.08,weatherlink.com 1.10,2013-02-06 11:03:00,
2013-02-06 05:18:00,65.4,64.0,29.98,ESE,110,7.0,7.0,96,0.01,,,0.08,weatherlink.com 1.10,2013-02-06 11:18:00,
2013-02-06 05:33:00,65.1,64.0,29.98,SE,128,0.0,8.0,96,0.00,,,0.08,weatherlink.com 1.10,2013-02-06 11:33:00,
2013-02-06 05:48:00,65.1,64.0,30.00,South,172,0.0,7.0,96,0.00,,,0.08,weatherlink.com 1.10,2013-02-06 11:48:00,
2013-02-06 06:03:00,65.0,64.0,30.01,West,273,0.0,4.0,96,0.00,,,0.08,weatherlink.com 1.10,2013-02-06 12:03:00,
2013-02-06 06:18:00,64.7,63.0,30.02,SSE,158,0.0,2.0,95,0.00,,,0.08,weatherlink.com 1.10,2013-02-06 12:18:00,
2013-02-06 06:33:00,64.4,63.0,30.04,SSE,153,0.0,1.0,95,0.00,,,0.08,weatherlink.com 1.10,2013-02-06 12:33:00,
2013-02-06 06:48:00,64.9,64.0,30.05,South,182,1.0,4.0,96,0.00,,,0.08,weatherlink.com 1.10,2013-02-06 12:48:00,
2013-02-06 07:03:00,65.7,65.0,30.04,SSW,202,0.0,6.0,96,0.02,,,0.10,weatherlink.com 1.10,2013-02-06 13:03:00,
2013-02-06 07:18:00,65.9,65.0,30.04,South,182,2.0,6.0,96,0.02,,,0.10,weatherlink.com 1.10,2013-02-06 13:18:00,
2013-02-06 07:33:00,65.9,65.0,30.04,South,179,3.0,5.0,96,0.02,,,0.10,weatherlink.com 1.10,2013-02-06 13:33:00,
2013-02-06 07:48:00,66.0,65.0,30.05,SSE,158,1.0,5.0,96,0.02,,,0.10,weatherlink.com 1.10,2013-02-06 13:48:00,
2013-02-06 08:03:00,66.0,65.0,30.05,SSW,213,2.0,4.0,96,0.01,,,0.11,weatherlink.com 1.10,2013-02-06 14:03:00,
2013-02-06 08:18:00,65.9,65.0,30.05,SSW,211,4.0,8.0,96,0.02,,,0.12,weatherlink.com 1.10,2013-02-06 14:18:00,
2013-02-06 08:34:00,65.7,65.0,30.06,South,173,0.0,5.0,96,0.03,,,0.13,weatherlink.com 1.10,2013-02-06 14:34:00,
2013-02-06 08:49:00,65.5,64.0,30.07,South,175,0.0,3.0,96,0.04,,,0.14,weatherlink.com 1.10,2013-02-06 14:49:00,
2013-02-06 09:04:00,65.0,64.0,30.07,South,186,0.0,1.0,96,0.05,,,0.16,weatherlink.com 1.10,2013-02-06 15:04:00,
2013-02-06 09:19:00,64.8,63.0,30.07,South,185,0.0,0.0,95,0.05,,,0.17,weatherlink.com 1.10,2013-02-06 15:19:00,
2013-02-06 09:34:00,64.8,64.0,30.08,South,185,0.0,1.0,96,0.05,,,0.18,weatherlink.com 1.10,2013-02-06 15:34:00,
2013-02-06 09:49:00,64.7,64.0,30.07,SSE,153,1.0,3.0,96,0.06,,,0.20,weatherlink.com 1.10,2013-02-06 15:49:00,
2013-02-06 10:04:00,64.3,63.0,30.08,SSE,166,0.0,5.0,95,0.05,,,0.21,weatherlink.com 1.10,2013-02-06 16:04:00,
2013-02-06 10:19:00,64.1,63.0,30.08,SSW,200,1.0,4.0,95,0.06,,,0.23,weatherlink.com 1.10,2013-02-06 16:19:00,
2013-02-06 10:34:00,63.9,63.0,30.08,SSW,207,0.0,2.0,95,0.06,,,0.25,weatherlink.com 1.10,2013-02-06 16:34:00,
2013-02-06 10:49:00,63.9,63.0,30.07,SE,142,0.0,2.0,95,0.06,,,0.26,weatherlink.com 1.10,2013-02-06 16:49:00,
2013-02-06 11:04:00,63.9,63.0,30.07,South,172,1.0,3.0,95,0.07,,,0.28,weatherlink.com 1.10,2013-02-06 17:04:00,
2013-02-06 11:19:00,63.8,62.0,30.06,SSE,153,0.0,4.0,95,0.06,,,0.29,weatherlink.com 1.10,2013-02-06 17:19:00,
2013-02-06 11:34:00,63.4,62.0,30.05,SSE,159,2.0,5.0,95,0.06,,,0.31,weatherlink.com 1.10,2013-02-06 17:34:00,
2013-02-06 11:49:00,63.1,62.0,30.05,South,172,0.0,4.0,95,0.06,,,0.32,weatherlink.com 1.10,2013-02-06 17:49:00,
2013-02-06 12:04:00,62.9,61.0,30.04,SE,132,1.0,6.0,94,0.06,,,0.34,weatherlink.com 1.10,2013-02-06 18:04:00,
2013-02-06 12:19:00,62.3,61.0,30.03,SE,142,1.0,5.0,94,0.06,,,0.35,weatherlink.com 1.10,2013-02-06 18:19:00,
2013-02-06 12:34:00,62.1,60.0,30.01,SE,142,2.0,4.0,94,0.06,,,0.37,weatherlink.com 1.10,2013-02-06 18:34:00,
2013-02-06 12:49:00,62.0,60.0,29.99,South,173,0.0,4.0,94,0.06,,,0.38,weatherlink.com 1.10,2013-02-06 18:49:00,
2013-02-06 13:04:00,62.5,61.0,29.97,ENE,57,2.0,3.0,95,0.06,,,0.40,weatherlink.com 1.10,2013-02-06 19:04:00,
2013-02-06 13:19:00,62.6,61.0,29.95,SE,128,0.0,7.0,94,0.06,,,0.41,weatherlink.com 1.10,2013-02-06 19:19:00,
2013-02-06 13:34:00,62.9,61.0,29.94,ESE,123,0.0,8.0,94,0.06,,,0.43,weatherlink.com 1.10,2013-02-06 19:34:00,
2013-02-06 13:49:00,63.2,62.0,29.93,ESE,110,1.0,8.0,94,0.06,,,0.44,weatherlink.com 1.10,2013-02-06 19:49:00,
2013-02-06 14:04:00,63.8,62.0,29.93,ESE,119,0.0,2.0,95,0.05,,,0.45,weatherlink.com 1.10,2013-02-06 20:04:00,
2013-02-06 14:19:00,64.7,63.0,29.93,SE,136,2.0,5.0,94,0.05,,,0.46,weatherlink.com 1.10,2013-02-06 20:19:00,
2013-02-06 14:34:00,64.9,62.0,29.93,ESE,103,2.0,9.0,91,0.04,,,0.47,weatherlink.com 1.10,2013-02-06 20:34:00,
2013-02-06 14:49:00,65.3,63.0,29.92,SE,127,3.0,5.0,92,0.05,,,0.49,weatherlink.com 1.10,2013-02-06 20:49:00,
2013-02-06 15:04:00,65.9,63.0,29.92,SE,138,2.0,7.0,90,0.05,,,0.50,weatherlink.com 1.10,2013-02-06 21:04:00,
2013-02-06 15:19:00,65.9,63.0,29.93,ESE,112,1.0,8.0,89,0.04,,,0.50,weatherlink.com 1.10,2013-02-06 21:19:00,
2013-02-06 15:34:00,65.9,63.0,29.92,East,93,0.0,3.0,91,0.04,,,0.51,weatherlink.com 1.10,2013-02-06 21:34:00,
2013-02-06 15:49:00,66.0,63.0,29.92,SSE,160,0.0,5.0,90,0.03,,,0.52,weatherlink.com 1.10,2013-02-06 21:49:00,
2013-02-06 16:04:00,66.2,63.0,29.92,SE,130,1.0,4.0,90,0.02,,,0.52,weatherlink.com 1.10,2013-02-06 22:04:00,
2013-02-06 16:19:00,66.3,63.0,29.92,East,101,0.0,3.0,89,0.02,,,0.52,weatherlink.com 1.10,2013-02-06 22:19:00,
2013-02-06 16:34:00,66.4,63.0,29.92,NE,49,0.0,4.0,89,0.01,,,0.52,weatherlink.com 1.10,2013-02-06 22:34:00,
2013-02-06 16:49:00,66.5,63.0,29.92,NE,40,0.0,3.0,89,0.00,,,0.52,weatherlink.com 1.10,2013-02-06 22:49:00,
2013-02-06 17:04:00,66.7,63.0,29.92,ENE,69,3.0,7.0,88,0.00,,,0.52,weatherlink.com 1.10,2013-02-06 23:04:00,
2013-02-06 17:19:00,67.0,63.0,29.92,ESE,107,1.0,8.0,86,0.00,,,0.52,weatherlink.com 1.10,2013-02-06 23:19:00,
2013-02-06 17:34:00,66.1,62.0,29.93,North,9,3.0,4.0,87,0.00,,,0.52,weatherlink.com 1.10,2013-02-06 23:34:00,
2013-02-06 17:49:00,65.3,62.0,29.94,ESE,118,3.0,6.0,88,0.00,,,0.52,weatherlink.com 1.10,2013-02-06 23:49:00,
2013-02-06 18:04:00,64.8,61.0,29.94,ESE,107,0.0,3.0,88,0.00,,,0.52,weatherlink.com 1.10,2013-02-07 00:04:00,
2013-02-06 18:19:00,64.5,61.0,29.94,ESE,105,0.0,2.0,89,0.00,,,0.52,weatherlink.com 1.10,2013-02-07 00:19:00,
2013-02-06 18:34:00,64.0,61.0,29.95,East,93,0.0,2.0,89,0.00,,,0.52,weatherlink.com 1.10,2013-02-07 00:34:00,
2013-02-06 18:49:00,63.8,61.0,29.95,East,86,0.0,0.0,90,0.00,,,0.52,weatherlink.com 1.10,2013-02-07 00:49:00,
2013-02-06 19:04:00,63.6,61.0,29.96,ENE,73,0.0,3.0,90,0.00,,,0.52,weatherlink.com 1.10,2013-02-07 01:04:00,
2013-02-06 19:19:00,63.5,60.0,29.97,ESE,115,0.0,5.0,89,0.00,,,0.52,weatherlink.com 1.10,2013-02-07 01:19:00,
2013-02-06 19:34:00,63.4,60.0,29.97,ESE,111,0.0,5.0,88,0.00,,,0.52,weatherlink.com 1.10,2013-02-07 01:34:00,
2013-02-06 19:49:00,63.3,60.0,29.98,ENE,69,0.0,8.0,88,0.00,,,0.52,weatherlink.com 1.10,2013-02-07 01:49:00,
2013-02-06 20:04:00,63.0,59.0,29.98,SE,130,0.0,4.0,88,0.00,,,0.52,weatherlink.com 1.10,2013-02-07 02:04:00,
2013-02-06 20:19:00,62.3,59.0,29.98,SSE,153,2.0,2.0,89,0.00,,,0.52,weatherlink.com 1.10,2013-02-07 02:19:00,
2013-02-06 20:34:00,61.8,59.0,29.98,ESE,118,0.0,3.0,90,0.00,,,0.52,weatherlink.com 1.10,2013-02-07 02:34:00,
2013-02-06 20:49:00,61.6,59.0,29.98,SE,126,0.0,1.0,90,0.00,,,0.52,weatherlink.com 1.10,2013-02-07 02:49:00,
2013-02-06 21:04:00,60.9,58.0,29.98,SE,126,0.0,0.0,91,0.00,,,0.52,weatherlink.com 1.10,2013-02-07 03:04:00,
2013-02-06 21:19:00,60.4,58.0,29.98,SE,128,0.0,1.0,92,0.00,,,0.52,weatherlink.com 1.10,2013-02-07 03:19:00,
2013-02-06 21:34:00,60.2,58.0,29.97,SE,138,0.0,1.0,92,0.00,,,0.52,weatherlink.com 1.10,2013-02-07 03:34:00,
2013-02-06 21:49:00,59.8,58.0,29.98,NNE,22,0.0,1.0,93,0.00,,,0.52,weatherlink.com 1.10,2013-02-07 03:49:00,
2013-02-06 22:04:00,59.3,57.0,29.98,NNE,22,0.0,0.0,92,0.00,,,0.52,weatherlink.com 1.10,2013-02-07 04:04:00,
2013-02-06 22:19:00,58.6,57.0,30.00,NNE,22,0.0,0.0,93,0.00,,,0.52,weatherlink.com 1.10,2013-02-07 04:19:00,
2013-02-06 22:35:00,58.5,57.0,30.00,NNE,22,0.0,0.0,94,0.00,,,0.52,weatherlink.com 1.10,2013-02-07 04:35:00,
2013-02-06 22:50:00,58.7,57.0,29.99,SE,141,0.0,0.0,95,0.00,,,0.52,weatherlink.com 1.10,2013-02-07 04:50:00,
2013-02-06 23:05:00,59.0,58.0,29.98,South,170,0.0,2.0,95,0.00,,,0.52,weatherlink.com 1.10,2013-02-07 05:05:00,
2013-02-06 23:20:00,59.2,58.0,29.99,SSE,152,0.0,3.0,94,0.00,,,0.52,weatherlink.com 1.10,2013-02-07 05:20:00,
2013-02-06 23:35:00,59.4,58.0,29.98,ESE,123,1.0,3.0,94,0.00,,,0.52,weatherlink.com 1.10,2013-02-07 05:35:00,
2013-02-06 23:50:00,59.9,58.0,29.98,East,98,0.0,8.0,93,0.00,,,0.52,weatherlink.com 1.10,2013-02-07 05:50:00,